AirNav   Air Wisconsin Up To $57,000 Bonus
 
 301 users online  

KCKA Kegelman Air Force Auxiliary Field
Cherokee, Oklahoma, USA

GOING TO CHEROKEE?


FAA INFORMATION EFFECTIVE 07 NOVEMBER 2019

Location

FAA Identifier: CKA
Lat/Long: 36-44-08.4850N 098-07-24.9950W
36-44.141417N 098-07.416583W
36.7356903,-98.1236097
(estimated)
Elevation: 1202.9 ft. / 367 m (estimated)
Variation: 07E (1985)
From city: 10 miles E of CHEROKEE, OK
Time zone: UTC -6 (UTC -5 during Daylight Saving Time)
Zip code: 73749

Airport Operations

Airport use: Private use. Permission required prior to landing
Control tower: no
ARTCC: KANSAS CITY CENTER
FSS: MC ALESTER FLIGHT SERVICE STATION
Attendance: UNATNDD
Wind indicator: yes
Segmented circle: no

Nearby radio navigation aids

VOR radial/distance  VOR name  Freq  Var
ENDr332/25.4VANCE VORTAC115.4005E
ANYr168/25.5ANTHONY VORTAC112.9007E
ODGr315/27.1WOODRING VOR/DME109.0008E

Airport Services

Airframe service: NONE
Powerplant service: NONE
Bottled oxygen: NONE
Bulk oxygen: NONE

Runway Information

Runway 17/35

Dimensions: 7800 x 150 ft. / 2377 x 46 m
Surface: asphalt
Weight bearing capacity: 
PCN 30 /F/B/W/T
RUNWAY 17  RUNWAY 35
Latitude: 36-44.783667N36-43.499167N
Longitude: 098-07.387500W098-07.445667W
Elevation: 1202.9 ft.1166.1 ft.
Traffic pattern: leftleft
Runway heading: 176 magnetic, 183 true356 magnetic, 003 true
Markings: NSTD, in good conditionNSTD, in good condition
Runway end identifier lights: nono

Airport Ownership and Management from official FAA records

Ownership: U.S. Air Force
Owner: U.S. AIR FORCE
71ST FLT TRNG WG VANCE AFB
ENID, OK 73705
Phone 580-213-7101
Manager: CHIEF AIRFIELD MANAGEMENT
71ST FLT TRNG WG VANCE AFB
ENID, OK 73705
Phone 580-213-7775

Airport Operational Statistics

Aircraft operations: avg 164/day
100% military

Additional Remarks

TFC PAT: MIL ACFT USE RIGHT AND LEFT 360 OVERHEAD APCH TO RY 17/35.
1000 FT ASPH OVRN END OF RWY 17.
MISC: AUX TO VANCE AFB. LTD EXCLUSIVELY TO VANCE AFB JET TRNG ACFT.
MISC: RWY SUPERVISORY UNIT (CALLSIGN DOGFACE) CTL VANCE T-6 STUDENT TRNG ACFT ON CTAF OR 139.9 DUR DAYLT HR MON-FRI.
CAUTION: LED OBST LGT INSTL WHICH MAY NOT BE VIS TO SOME NVD OR NGT VISION GOGGLES.
FOR CD CTC VANCE APCH AT 580-213-6765. WHEN VANCE APCH IS CLSD, CTC KANSAS CITY ARTCC AT 913-254-8508.

Instrument Procedures

There are no published instrument procedures at KCKA.

Some nearby airports with instrument procedures:

O53 - Medford Municipal Airport (18 nm E)
KANY - Anthony Municipal Airport (25 nm N)
KEND - Vance Air Force Base (26 nm SE)
KAVK - Alva Regional Airport (26 nm W)
KWDG - Enid Woodring Regional Airport (27 nm SE)
 
Loc | Ops | Rwys | IFR | FBO | Links
Com | Nav | Svcs | Stats | Notes
Area around KCKA (Kegelman Air Force Auxiliary Field)
 
Road maps at: MapQuest Bing Google
 
Aerial photo
No photo
 
Sectional chart

 
Airport distance calculator
Flying to Kegelman Air Force Auxiliary Field? Find the distance to fly.

From to KCKA

Sunrise and sunset
Times for 12-Nov-2019
 Local
(UTC-6)
 Zulu
(UTC)
Morning civil twilight06:4112:41
Sunrise07:0813:08
Sunset17:2523:25
Evening civil twilight17:5223:52

Current date and time
Zulu (UTC)  12-Nov-2019 08:59:06
Local (UTC-6)  12-Nov-2019 02:59:06
 
METAR
KAVK 
26nm W 
120835Z AUTO 34008KT 10SM FEW014 M11/M15 A3072 RMK AO2
KEND 
27nm S 
120756Z AUTO 34008KT 10SM CLR M09/M12 A3068 RMK AO2 SLP411 T10901125 $
KWDG 
28nm SE 
120835Z AUTO 35007KT 10SM CLR M08/M12 A3069 RMK AO2
KBKN 
37nm E 
120855Z AUTO 33008KT 10SM M09/M13 A3074 RMK AO2
KP28 
39nm NW 
120756Z AUTO 33003KT M14/M16 A3070 RMK AO1 SLP424 T11391161
KPNC 
49nm E 
120853Z AUTO 34004KT 10SM CLR M09/M14 A3071 RMK AO2 SLP412 T10941139 53001 $
TAF
KEND 
27nm S 
111350Z 1113/1216 36010G15KT 8000 -SHRA OVC007 650307 540203 QNH2986INS TEMPO 1113/1115 02025G40KT 6000 -FZRA OVC010 690009 BECMG 1115/1116 02025G40KT 8000 -SHSN OVC030 650307 540203 QNH2988INS BECMG 1117/1118 01020G30KT 9999 NSW BKN030 510207 QNH3031INS BECMG 1120/1121 01015G20KT 9999 SCT030 510207 QNH3037INS BECMG 1200/1201 36012KT 9999 SKC QNH3049INS TX01/1121Z TNM06/1210Z LAST NO AMDS AFT 1114 NEXT 1210
NOTAMs
Click for the latest NOTAMs
NOTAMs are issued by the DoD/FAA and will open in a separate window not controlled by AirNav.

 

 
 

Would you like to see your business listed on this page?

 If your business provides an interesting product or service to pilots, flight crews, aircraft, or users of the Kegelman Air Force Auxiliary Field, you should consider listing it here.  To start the listing process, click on the button below
 
Add a business
 

Other Pages about Kegelman Air Force Auxiliary Field

Update a link
 
Copyright © AirNav, LLC. All rights reserved. Privacy Policy  Contact